Time;durP1;ratioP1;P1;durP2;ratioP2;P2;SDS_P1;SDS_P2;PMS_P1;PMS_P2;Temp;Humidity;BMP_temperature;BMP_pressure;BME280_temperature;BME280_humidity;BME280_pressure;Samples;Min_cycle;Max_cycle;Signal;HPM_P1;HPM_P2
2022/04/13 00:01:47;;;;;;;44.10;34.40;;;;;;;5.19;48.70;101007.21;111850;1234;22406;-76
2022/04/13 00:04:18;;;;;;;53.20;39.70;;;;;;;5.14;48.85;101006.19;112776;1234;22408;-77
2022/04/13 00:06:49;;;;;;;64.60;44.90;;;;;;;5.12;48.96;101002.17;111785;1242;22365;-77
2022/04/13 00:09:19;;;;;;;65.30;43.90;;;;;;;5.10;49.04;100995.32;111773;1239;22458;-78
2022/04/13 00:11:50;;;;;;;74.20;48.10;;;;;;;5.09;49.16;100995.78;111490;1239;23698;-77
2022/04/13 00:14:22;;;;;;;65.90;46.50;;;;;;;5.05;49.09;100993.13;111673;1239;22201;-77
2022/04/13 00:16:54;;;;;;;58.40;42.40;;;;;;;5.01;49.29;101001.96;111862;1239;21958;-77
2022/04/13 00:19:32;;;;;;;57.20;41.80;;;;;;;4.99;49.40;101008.04;111155;1247;21969;-77
2022/04/13 00:22:00;;;;;;;53.50;37.60;;;;;;;4.95;49.42;101016.01;111317;1244;22915;-78
2022/04/13 00:24:31;;;;;;;52.40;39.20;;;;;;;4.91;49.49;101016.83;111362;1245;21967;-77
2022/04/13 00:27:02;;;;;;;53.90;41.80;;;;;;;4.88;49.58;101015.69;111253;1244;21982;-78
2022/04/13 00:29:36;;;;;;;49.10;38.80;;;;;;;4.84;49.69;101016.52;111433;1244;23035;-76
2022/04/13 00:32:07;;;;;;;44.70;36.80;;;;;;;4.81;49.78;101017.23;111576;1240;23689;-77
2022/04/13 00:34:35;;;;;;;47.00;37.70;;;;;;;4.77;49.87;101014.73;111715;1240;23672;-77
2022/04/13 00:37:06;;;;;;;39.10;34.90;;;;;;;4.73;49.92;101012.79;111819;1234;22090;-77
2022/04/13 00:39:37;;;;;;;41.00;32.40;;;;;;;4.68;50.02;101015.36;112217;1234;22413;-76
2022/04/13 00:42:09;;;;;;;39.60;32.30;;;;;;;4.64;50.19;101016.42;112438;1234;23057;-76
2022/04/13 00:44:37;;;;;;;43.10;31.60;;;;;;;4.61;50.43;101015.44;112352;1233;21979;-76
2022/04/13 00:47:08;;;;;;;39.80;33.70;;;;;;;4.58;50.48;101014.78;112187;1235;23029;-77
2022/04/13 00:49:38;;;;;;;40.40;31.10;;;;;;;4.54;50.57;101016.77;112200;1233;22013;-79
2022/04/13 00:52:12;;;;;;;39.90;32.70;;;;;;;4.52;50.69;101018.37;112862;1233;21944;-76
2022/04/13 00:54:45;;;;;;;40.90;32.30;;;;;;;4.49;50.76;101024.52;112220;1235;21945;-79
2022/04/13 00:57:18;;;;;;;37.10;29.80;;;;;;;4.45;50.83;101020.79;112239;1234;21946;-76
2022/04/13 00:59:53;;;;;;;40.80;32.30;;;;;;;4.42;51.00;101016.64;112346;1234;22018;-77
2022/04/13 01:02:24;;;;;;;42.40;32.50;;;;;;;4.39;51.13;101011.23;112315;1233;21954;-76
2022/04/13 01:04:57;;;;;;;41.00;32.10;;;;;;;4.38;51.25;101010.11;112424;1234;23016;-77
2022/04/13 01:07:25;;;;;;;41.10;34.90;;;;;;;4.37;51.29;101011.94;111958;1239;21963;-78
2022/04/13 01:10:00;;;;;;;36.60;31.10;;;;;;;4.35;51.27;101012.27;111546;1239;23669;-78
2022/04/13 01:12:34;;;;;;;38.20;29.80;;;;;;;4.32;51.42;101010.91;110979;1246;22015;-78
2022/04/13 01:15:05;;;;;;;39.30;31.60;;;;;;;4.29;51.50;101006.23;111165;1245;21970;-77
2022/04/13 01:17:39;;;;;;;36.20;28.60;;;;;;;4.28;51.60;101008.77;111201;1244;21966;-77
2022/04/13 01:20:11;;;;;;;37.40;30.20;;;;;;;4.26;51.73;101013.58;111344;1246;22165;-76
2022/04/13 01:22:44;;;;;;;36.20;31.10;;;;;;;4.25;51.74;101019.09;111066;1247;23042;-77
2022/04/13 01:25:12;;;;;;;39.80;30.90;;;;;;;4.23;51.71;101023.05;111117;1244;23841;-77
2022/04/13 01:27:41;;;;;;;41.20;34.20;;;;;;;4.22;51.76;101021.04;111186;1245;22014;-77
2022/04/13 01:30:14;;;;;;;39.10;32.40;;;;;;;4.20;51.78;101024.48;111280;1239;21962;-77
2022/04/13 01:32:43;;;;;;;38.60;31.80;;;;;;;4.16;51.79;101022.14;111835;1239;22192;-77
2022/04/13 01:35:10;;;;;;;42.20;33.90;;;;;;;4.12;52.00;101019.48;111525;1240;23797;-79
2022/04/13 01:37:38;;;;;;;42.20;35.20;;;;;;;4.11;52.12;101023.40;111692;1239;21971;-77
2022/04/13 01:40:10;;;;;;;42.90;36.30;;;;;;;4.08;52.19;101020.48;111720;1233;23760;-78
2022/04/13 01:42:49;;;;;;;45.20;38.10;;;;;;;4.05;52.35;101014.44;111825;1240;22322;-77
2022/04/13 01:45:20;;;;;;;43.60;36.40;;;;;;;4.02;52.45;101011.64;112025;1238;22029;-77
2022/04/13 01:47:54;;;;;;;50.00;40.30;;;;;;;4.00;52.52;101014.38;111452;1241;23633;-78
2022/04/13 01:50:27;;;;;;;53.80;43.90;;;;;;;3.97;52.60;101020.52;111162;1243;23703;-77
2022/04/13 01:52:57;;;;;;;56.70;43.80;;;;;;;3.95;52.73;101024.17;111528;1243;23026;-77
2022/04/13 01:55:27;;;;;;;72.00;50.40;;;;;;;3.92;52.82;101022.98;111451;1242;23207;-77
2022/04/13 01:57:58;;;;;;;83.30;53.20;;;;;;;3.90;52.93;101019.13;111358;1243;21960;-78
2022/04/13 02:00:29;;;;;;;81.50;53.00;;;;;;;3.88;52.92;101013.02;111497;1238;22030;-77
2022/04/13 02:02:57;;;;;;;79.60;49.70;;;;;;;3.85;53.09;101010.96;111822;1238;21957;-77
2022/04/13 02:05:29;;;;;;;69.60;48.00;;;;;;;3.83;53.28;101006.95;111953;1238;22198;-77
2022/04/13 02:07:57;;;;;;;74.30;47.10;;;;;;;3.80;53.20;101004.34;111814;1238;21963;-76
2022/04/13 02:10:26;;;;;;;66.80;44.20;;;;;;;3.77;53.36;100999.80;111951;1238;24281;-77
2022/04/13 02:12:55;;;;;;;61.10;41.60;;;;;;;3.75;53.36;100999.60;112111;1233;23069;-76
2022/04/13 02:15:25;;;;;;;56.10;39.30;;;;;;;3.74;53.43;100999.88;112373;1233;22024;-77
2022/04/13 02:17:53;;;;;;;52.50;37.70;;;;;;;3.72;53.62;100995.99;111731;1238;21969;-76
2022/04/13 02:20:22;;;;;;;50.00;37.30;;;;;;;3.72;53.71;100996.56;112030;1238;22744;-76
2022/04/13 02:22:52;;;;;;;61.60;43.90;;;;;;;3.70;53.79;100997.89;111845;1238;23568;-77
2022/04/13 02:25:22;;;;;;;131.50;74.90;;;;;;;3.69;53.88;100999.02;112110;1237;21957;-77
2022/04/13 02:28:01;;;;;;;74.60;54.80;;;;;;;3.68;53.93;100996.09;111391;1245;21975;-77
2022/04/13 02:30:38;;;;;;;48.50;38.40;;;;;;;3.66;53.97;100995.36;111605;1244;21964;-76
2022/04/13 02:33:16;;;;;;;45.70;35.10;;;;;;;3.64;54.01;100997.27;110665;1251;22867;-77
2022/04/13 02:35:47;;;;;;;41.10;34.00;;;;;;;3.64;54.08;100995.36;110977;1247;24373;-76
2022/04/13 02:38:20;;;;;;;73.40;65.50;;;;;;;3.64;54.26;100996.21;111087;1247;21974;-76
2022/04/13 02:40:48;;;;;;;109.10;97.80;;;;;;;3.64;54.25;100997.11;110725;1247;21980;-77
2022/04/13 02:43:24;;;;;;;114.20;102.30;;;;;;;3.63;54.31;100997.53;110634;1251;24297;-77
2022/04/13 02:45:52;;;;;;;115.10;103.70;;;;;;;3.63;54.44;100995.79;110753;1245;23017;-77
2022/04/13 02:48:24;;;;;;;101.80;92.00;;;;;;;3.62;54.42;100992.67;111440;1244;22674;-76
2022/04/13 02:50:56;;;;;;;141.10;115.30;;;;;;;3.62;54.43;100994.23;111427;1244;22024;-77
2022/04/13 02:53:26;;;;;;;427.60;343.90;;;;;;;3.61;54.50;100997.79;111184;1245;23023;-77
2022/04/13 02:56:01;;;;;;;388.40;296.10;;;;;;;3.62;54.60;100996.39;111200;1245;21987;-77
2022/04/13 02:58:30;;;;;;;116.10;87.50;;;;;;;3.61;54.59;100995.55;111180;1244;21966;-77
2022/04/13 03:01:08;;;;;;;189.40;144.80;;;;;;;3.61;54.67;100996.40;111402;1244;21985;-76
2022/04/13 03:03:41;;;;;;;104.80;77.40;;;;;;;3.62;54.65;100996.39;111407;1244;22072;-77
2022/04/13 03:06:09;;;;;;;72.80;55.50;;;;;;;3.62;54.67;100997.27;111211;1244;22918;-77
2022/04/13 03:08:38;;;;;;;63.50;45.60;;;;;;;3.61;54.66;100998.90;111222;1244;21961;-76
2022/04/13 03:11:09;;;;;;;51.00;38.70;;;;;;;3.60;54.63;101001.41;111222;1244;22543;-77
2022/04/13 03:13:38;;;;;;;45.30;32.00;;;;;;;3.58;54.77;101002.40;110644;1250;21970;-77
2022/04/13 03:16:06;;;;;;;61.10;48.00;;;;;;;3.58;54.77;101003.79;111117;1245;23028;-77
2022/04/13 03:18:34;;;;;;;53.60;38.40;;;;;;;3.57;54.78;101004.38;111321;1239;22465;-77
2022/04/13 03:21:02;;;;;;;72.80;56.00;;;;;;;3.56;54.81;101008.10;111645;1239;22215;-78
2022/04/13 03:23:29;;;;;;;41.90;28.80;;;;;;;3.54;54.79;101005.98;111804;1239;21994;-77
2022/04/13 03:25:57;;;;;;;43.20;27.90;;;;;;;3.52;54.80;101001.38;111760;1239;21962;-78
2022/04/13 03:28:25;;;;;;;33.60;26.50;;;;;;;3.50;54.76;101004.46;111380;1244;22029;-78
2022/04/13 03:30:53;;;;;;;32.30;24.40;;;;;;;3.48;54.91;101004.83;111227;1241;21973;-79
2022/04/13 03:33:23;;;;;;;36.30;25.90;;;;;;;3.46;54.97;101006.73;111801;1240;21964;-77
2022/04/13 03:35:51;;;;;;;32.60;27.40;;;;;;;3.44;55.05;101009.23;111998;1240;22946;-77
2022/04/13 03:38:19;;;;;;;40.20;30.10;;;;;;;3.42;54.99;101007.83;111796;1240;21957;-77
2022/04/13 03:40:47;;;;;;;45.80;28.80;;;;;;;3.40;55.11;101011.31;112072;1239;22952;-76
2022/04/13 03:43:20;;;;;;;48.60;30.00;;;;;;;3.38;55.15;101011.60;111606;1239;22941;-78
2022/04/13 03:45:48;;;;;;;37.00;27.10;;;;;;;3.38;55.30;101013.91;111204;1240;22324;-79
2022/04/13 03:48:19;;;;;;;31.40;24.30;;;;;;;3.38;55.41;101018.73;111078;1244;22549;-77
2022/04/13 03:50:47;;;;;;;40.10;28.60;;;;;;;3.40;55.45;101020.55;111115;1245;22037;-79
2022/04/13 03:53:22;;;;;;;36.30;29.00;;;;;;;3.41;55.62;101019.44;110978;1246;22490;-77
2022/04/13 03:55:55;;;;;;;40.20;31.50;;;;;;;3.39;55.60;101016.09;110767;1251;23778;-77
2022/04/13 03:58:33;;;;;;;38.20;28.40;;;;;;;3.35;55.65;101018.10;110618;1256;22015;-78
2022/04/13 04:01:04;;;;;;;35.10;26.40;;;;;;;3.31;55.72;101025.48;110546;1254;21967;-78
2022/04/13 04:03:41;;;;;;;34.00;25.20;;;;;;;3.28;55.89;101027.09;110505;1251;23731;-78
2022/04/13 04:06:14;;;;;;;35.70;27.00;;;;;;;3.26;56.04;101026.70;110885;1247;23083;-78
2022/04/13 04:08:42;;;;;;;38.60;27.40;;;;;;;3.24;56.11;101027.15;110933;1248;23690;-78
2022/04/13 04:11:17;;;;;;;63.80;48.10;;;;;;;3.22;56.17;101027.83;111004;1250;21967;-78
2022/04/13 04:13:45;;;;;;;216.70;143.40;;;;;;;3.23;56.28;101033.02;110801;1244;22992;-77
2022/04/13 04:16:13;;;;;;;76.20;53.30;;;;;;;3.22;56.24;101036.91;111595;1239;23772;-77
2022/04/13 04:18:41;;;;;;;49.50;35.00;;;;;;;3.21;56.30;101034.33;111899;1239;22196;-77
2022/04/13 04:21:09;;;;;;;58.90;36.70;;;;;;;3.20;56.41;101038.21;112030;1239;22029;-77
2022/04/13 04:23:37;;;;;;;50.60;32.80;;;;;;;3.20;56.46;101037.70;111985;1239;22538;-77
2022/04/13 04:26:06;;;;;;;41.60;29.40;;;;;;;3.23;56.62;101038.17;111759;1238;22074;-77
2022/04/13 04:28:34;;;;;;;61.60;36.30;;;;;;;3.30;56.76;101036.86;112012;1234;22988;-77
2022/04/13 04:31:02;;;;;;;55.30;34.60;;;;;;;3.41;56.86;101040.14;112265;1234;21970;-77
2022/04/13 04:33:31;;;;;;;59.00;34.90;;;;;;;3.56;57.19;101043.30;112239;1234;23558;-75
2022/04/13 04:36:01;;;;;;;61.60;37.30;;;;;;;3.72;57.28;101041.64;112467;1234;21954;-76
2022/04/13 04:38:32;;;;;;;211.40;149.20;;;;;;;3.84;56.92;101041.31;111553;1239;22154;-77
2022/04/13 04:41:07;;;;;;;56.90;38.40;;;;;;;3.96;56.85;101040.14;111773;1239;22017;-77
2022/04/13 04:43:37;;;;;;;43.10;28.50;;;;;;;4.12;56.98;101037.61;111868;1239;23563;-76
2022/04/13 04:46:10;;;;;;;35.10;24.90;;;;;;;4.30;56.96;101034.89;111961;1239;21912;-76
2022/04/13 04:48:58;;;;;;;36.40;24.30;;;;;;;4.51;56.77;101035.32;111985;1239;23701;-76
2022/04/13 04:51:31;;;;;;;36.90;25.20;;;;;;;4.71;56.29;101040.15;111791;1240;22222;-76
2022/04/13 04:54:03;;;;;;;38.90;26.10;;;;;;;4.89;55.95;101044.92;111845;1239;22046;-76
2022/04/13 04:56:31;;;;;;;38.00;25.80;;;;;;;5.09;55.78;101041.48;111965;1234;21980;-77
2022/04/13 04:59:02;;;;;;;38.50;26.10;;;;;;;5.30;55.36;101046.02;112291;1234;21951;-76
2022/04/13 05:01:33;;;;;;;39.00;26.80;;;;;;;5.52;55.20;101046.95;112271;1234;21953;-77
2022/04/13 05:04:01;;;;;;;36.60;28.60;;;;;;;5.80;54.87;101050.23;112274;1234;21967;-77
2022/04/13 05:06:29;;;;;;;43.00;31.10;;;;;;;6.07;54.52;101050.35;112483;1233;23561;-76
2022/04/13 05:09:00;;;;;;;48.80;35.30;;;;;;;6.37;54.03;101053.78;112202;1234;21950;-78
2022/04/13 05:11:28;;;;;;;41.80;30.40;;;;;;;6.63;53.42;101056.58;112432;1233;22423;-75
2022/04/13 05:13:55;;;;;;;42.20;28.80;;;;;;;6.90;52.74;101058.05;112596;1234;23670;-77
2022/04/13 05:16:23;;;;;;;45.00;32.20;;;;;;;7.14;51.90;101060.10;112447;1234;21944;-77
2022/04/13 05:18:51;;;;;;;53.50;36.20;;;;;;;7.34;51.42;101060.31;112306;1234;21943;-77
2022/04/13 05:21:19;;;;;;;47.00;32.90;;;;;;;7.61;51.30;101064.30;112294;1234;23592;-77
2022/04/13 05:23:49;;;;;;;35.20;26.80;;;;;;;7.89;50.65;101060.52;112511;1234;21963;-78
2022/04/13 05:26:18;;;;;;;42.50;27.40;;;;;;;8.08;49.63;101059.36;111860;1240;21955;-78
2022/04/13 05:28:47;;;;;;;42.50;25.70;;;;;;;8.30;49.50;101061.80;111660;1239;21967;-78
2022/04/13 05:31:15;;;;;;;38.50;25.10;;;;;;;8.56;49.07;101062.02;111806;1238;21986;-78
2022/04/13 05:33:50;;;;;;;32.00;24.30;;;;;;;8.78;48.54;101060.55;111827;1238;24194;-78
2022/04/13 05:36:18;;;;;;;35.70;22.60;;;;;;;8.96;47.67;101061.93;111564;1244;21967;-78
2022/04/13 05:38:46;;;;;;;30.50;18.80;;;;;;;9.08;47.07;101063.11;111475;1244;24325;-78
2022/04/13 05:41:14;;;;;;;27.10;16.80;;;;;;;9.14;46.34;101066.92;111482;1244;22728;-79
2022/04/13 05:43:42;;;;;;;25.60;17.10;;;;;;;9.18;46.15;101071.30;111578;1239;23692;-78
2022/04/13 05:46:10;;;;;;;20.00;14.80;;;;;;;9.29;46.14;101067.45;111802;1239;22261;-77
2022/04/13 05:48:38;;;;;;;25.30;16.20;;;;;;;9.49;46.14;101069.31;112009;1239;21947;-78
2022/04/13 05:51:09;;;;;;;20.80;15.70;;;;;;;9.76;46.01;101070.66;111889;1240;23232;-77
2022/04/13 05:53:37;;;;;;;21.30;14.10;;;;;;;10.09;45.44;101075.57;111861;1234;23665;-77
2022/04/13 05:56:05;;;;;;;19.70;13.80;;;;;;;10.34;44.61;101080.24;112297;1234;21952;-77
2022/04/13 05:58:33;;;;;;;19.60;13.20;;;;;;;10.61;44.19;101081.32;111736;1240;22748;-78
2022/04/13 06:01:01;;;;;;;15.50;12.20;;;;;;;10.92;43.48;101082.01;112039;1239;23554;-78
2022/04/13 06:03:29;;;;;;;17.30;13.00;;;;;;;11.16;42.65;101085.47;111900;1239;21969;-76
2022/04/13 06:06:12;;;;;;;16.10;12.90;;;;;;;11.36;42.13;101089.91;112096;1239;22038;-79
2022/04/13 06:08:40;;;;;;;16.60;12.80;;;;;;;11.55;41.37;101091.22;111858;1239;21935;-79
2022/04/13 06:11:08;;;;;;;19.60;13.30;;;;;;;11.66;41.00;101090.20;111723;1240;22736;-79
2022/04/13 06:13:36;;;;;;;18.00;13.00;;;;;;;11.84;41.01;101093.36;111641;1239;21985;-78
2022/04/13 06:16:07;;;;;;;15.40;13.40;;;;;;;12.09;40.55;101096.27;112065;1234;21980;-78
2022/04/13 06:18:35;;;;;;;27.50;14.60;;;;;;;12.29;39.70;101093.63;112717;1234;22211;-79
2022/04/13 06:21:03;;;;;;;18.70;12.90;;;;;;;12.40;39.24;101095.32;111822;1238;21961;-78
2022/04/13 06:23:37;;;;;;;18.50;14.00;;;;;;;12.49;38.85;101096.73;111918;1238;23424;-77
2022/04/13 06:26:04;;;;;;;17.00;12.20;;;;;;;12.59;38.68;101098.25;111990;1238;22917;-80
2022/04/13 06:28:32;;;;;;;21.90;14.20;;;;;;;12.79;38.43;101094.16;111990;1238;21937;-78
2022/04/13 06:31:00;;;;;;;17.20;13.10;;;;;;;12.99;38.29;101090.60;111696;1240;22092;-78
2022/04/13 06:33:28;;;;;;;13.90;11.80;;;;;;;13.31;38.30;101090.48;112074;1239;22838;-78
2022/04/13 06:36:00;;;;;;;18.40;14.00;;;;;;;13.65;37.48;101087.87;111895;1239;21960;-77
2022/04/13 06:38:28;;;;;;;17.60;13.70;;;;;;;13.89;37.03;101091.71;112068;1234;22011;-79
2022/04/13 06:40:56;;;;;;;18.20;12.00;;;;;;;14.10;36.09;101095.73;111982;1237;21997;-79
2022/04/13 06:43:26;;;;;;;17.70;12.90;;;;;;;14.13;35.14;101098.77;112330;1237;21956;-78
2022/04/13 06:45:55;;;;;;;18.30;12.00;;;;;;;14.04;34.87;101093.89;111708;1242;22745;-78
2022/04/13 06:48:25;;;;;;;18.90;13.50;;;;;;;13.97;34.88;101095.45;111618;1243;23020;-79
2022/04/13 06:50:57;;;;;;;17.60;13.00;;;;;;;13.93;35.02;101096.79;111728;1242;23007;-77
2022/04/13 06:53:29;;;;;;;22.10;15.60;;;;;;;14.07;35.16;101095.20;111344;1245;22017;-80
2022/04/13 06:55:57;;;;;;;;;;;;;;;14.20;34.36;101097.06;110766;1245;461903;-77
2022/04/13 06:58:25;;;;;;;15.40;10.90;;;;;;;14.10;34.50;101096.13;111209;1245;21954;-77
2022/04/13 07:00:53;;;;;;;15.60;12.00;;;;;;;14.24;34.74;101098.63;111505;1242;22345;-77
2022/04/13 07:03:23;;;;;;;20.80;14.80;;;;;;;14.41;34.47;101092.45;111534;1239;21974;-77
2022/04/13 07:05:52;;;;;;;14.10;11.20;;;;;;;14.62;34.13;101090.39;111942;1239;23704;-77
2022/04/13 07:08:20;;;;;;;13.10;11.20;;;;;;;14.74;33.53;101091.67;111472;1239;21947;-76
2022/04/13 07:10:48;;;;;;;13.50;10.70;;;;;;;14.84;33.61;101085.59;111780;1234;21990;-78
2022/04/13 07:13:16;;;;;;;15.90;11.70;;;;;;;15.10;33.69;101084.61;112613;1234;21958;-82
2022/04/13 07:15:44;;;;;;;14.60;10.60;;;;;;;15.36;33.19;101085.98;112604;1234;21977;-78
2022/04/13 07:18:12;;;;;;;13.80;9.80;;;;;;;15.57;32.90;101085.27;112001;1238;22720;-78
2022/04/13 07:20:40;;;;;;;14.00;10.40;;;;;;;15.79;32.69;101082.13;111591;1238;21965;-77
2022/04/13 07:23:08;;;;;;;19.20;13.60;;;;;;;16.17;32.68;101085.94;111964;1239;21962;-79
2022/04/13 07:25:36;;;;;;;16.20;12.80;;;;;;;16.57;32.42;101085.86;112035;1238;22000;-78
2022/04/13 07:28:04;;;;;;;14.50;9.70;;;;;;;17.07;32.15;101086.63;111175;1245;23087;-78
2022/04/13 07:30:32;;;;;;;13.40;9.40;;;;;;;17.40;30.58;101084.96;111372;1245;23043;-78
2022/04/13 07:33:01;;;;;;;11.80;9.20;;;;;;;17.26;29.43;101078.30;111201;1245;22120;-81
2022/04/13 07:35:31;;;;;;;11.80;9.10;;;;;;;17.16;29.81;101080.52;111585;1239;23786;-82
2022/04/13 07:38:00;;;;;;;12.00;9.60;;;;;;;17.11;29.90;101077.08;111929;1239;23041;-77
2022/04/13 07:40:28;;;;;;;292.80;54.80;;;;;;;17.22;29.93;101078.48;112100;1240;23686;-80
2022/04/13 07:44:14;;;;;;;14.30;7.80;;;;;;;17.61;29.20;101077.23;107407;1288;544199;-75
2022/04/13 07:46:43;;;;;;;12.40;7.70;;;;;;;17.75;28.78;101082.91;109828;1262;21976;-80
2022/04/13 07:49:12;;;;;;;19.80;9.50;;;;;;;17.89;28.75;101079.39;109819;1262;21975;-76
2022/04/13 07:51:41;;;;;;;10.80;8.00;;;;;;;18.10;29.24;101081.27;108809;1271;23152;-77
2022/04/13 07:54:10;;;;;;;10.40;7.60;;;;;;;18.17;27.96;101083.13;108779;1271;23560;-78
2022/04/13 07:57:03;;;;;;;9.50;7.00;;;;;;;18.06;27.64;101084.33;108603;1268;278881;-77
2022/04/13 07:59:32;;;;;;;10.90;7.70;;;;;;;18.09;27.67;101086.64;108840;1267;21976;-76
2022/04/13 08:02:04;;;;;;;9.60;8.10;;;;;;;18.12;26.84;101086.48;108790;1270;23675;-75
2022/04/13 08:04:37;;;;;;;10.90;7.30;;;;;;;18.03;26.93;101086.31;109124;1268;24386;-76
2022/04/13 08:07:06;;;;;;;10.30;7.40;;;;;;;18.18;26.67;101087.16;109266;1264;24473;-76
2022/04/13 08:09:37;;;;;;;9.30;6.40;;;;;;;18.10;26.32;101088.66;109589;1258;21971;-80
2022/04/13 08:12:07;;;;;;;15.20;7.40;;;;;;;18.14;26.23;101085.46;110423;1255;21965;-76
2022/04/13 08:14:36;;;;;;;13.60;8.90;;;;;;;18.14;26.15;101085.51;110405;1258;21987;-75
2022/04/13 08:17:05;;;;;;;9.90;8.90;;;;;;;18.20;25.81;101084.50;110306;1257;22128;-76
2022/04/13 08:19:34;;;;;;;8.50;6.70;;;;;;;18.10;25.30;101084.16;110090;1258;23039;-76
2022/04/13 08:22:06;;;;;;;7.60;6.70;;;;;;;18.10;25.26;101087.70;110257;1258;22106;-76
2022/04/13 08:24:34;;;;;;;;;;;;;;;18.03;24.65;101087.67;110107;1257;23079;-75
2022/04/13 08:27:04;;;;;;;8.70;6.30;;;;;;;18.00;24.83;101087.23;109624;1263;21976;-77
2022/04/13 08:29:34;;;;;;;8.30;6.20;;;;;;;18.35;25.27;101086.02;109668;1255;22103;-74
2022/04/13 08:32:03;;;;;;;6.30;5.60;;;;;;;18.70;25.03;101089.64;110566;1255;21982;-74
2022/04/13 08:34:34;;;;;;;7.30;5.10;;;;;;;19.07;24.53;101091.33;110367;1255;22082;-77
2022/04/13 08:37:03;;;;;;;7.30;6.00;;;;;;;19.22;23.70;101089.64;110421;1257;24308;-76
2022/04/13 08:39:32;;;;;;;7.80;5.70;;;;;;;19.31;23.57;101085.14;110137;1255;22941;-75
2022/04/13 08:42:17;;;;;;;9.00;6.40;;;;;;;19.48;23.47;101085.70;110385;1255;22017;-75
2022/04/13 08:44:52;;;;;;;6.70;5.50;;;;;;;19.35;22.67;101090.24;110480;1249;23568;-76
2022/04/13 08:47:24;;;;;;;8.30;5.90;;;;;;;19.14;22.84;101083.30;111100;1249;23609;-76
2022/04/13 08:49:53;;;;;;;8.80;6.10;;;;;;;19.07;22.97;101084.53;110981;1249;23025;-76
2022/04/13 08:52:33;;;;;;;9.10;6.50;;;;;;;19.10;23.37;101079.77;110707;1250;22412;-75
2022/04/13 08:55:10;;;;;;;14.30;12.80;;;;;;;19.31;23.08;101080.61;110848;1249;23051;-75
2022/04/13 08:57:46;;;;;;;9.60;7.00;;;;;;;19.36;22.75;101081.50;110996;1248;22482;-74
2022/04/13 09:00:18;;;;;;;18.20;8.60;;;;;;;19.30;22.46;101079.00;110730;1250;22839;-78
2022/04/13 09:02:50;;;;;;;6.80;6.10;;;;;;;19.21;22.76;101071.30;110831;1249;23578;-77
2022/04/13 09:05:29;;;;;;;8.60;7.10;;;;;;;19.42;23.05;101074.99;110837;1247;23026;-77
2022/04/13 09:08:22;;;;;;;7.30;6.10;;;;;;;19.72;22.72;101076.19;110598;1250;23015;-77
2022/04/13 09:10:57;;;;;;;6.30;5.70;;;;;;;19.91;22.40;101082.84;110904;1251;23593;-80
2022/04/13 09:13:37;;;;;;;9.40;6.30;;;;;;;19.80;21.71;101080.79;110975;1249;22984;-80
2022/04/13 09:16:16;;;;;;;12.10;6.50;;;;;;;19.85;22.49;101078.64;110960;1249;21965;-80
2022/04/13 09:18:46;;;;;;;8.60;5.70;;;;;;;20.08;22.19;101075.37;110954;1249;21968;-82
2022/04/13 09:21:18;;;;;;;7.60;6.30;;;;;;;20.21;21.77;101077.05;110449;1255;21960;-81
2022/04/13 09:23:48;;;;;;;7.20;5.90;;;;;;;20.18;21.63;101077.52;110441;1252;22192;-81
2022/04/13 09:26:25;;;;;;;8.90;6.50;;;;;;;20.35;21.68;101079.92;110418;1255;21967;-80
2022/04/13 09:28:55;;;;;;;8.50;5.90;;;;;;;20.62;21.33;101082.70;110784;1255;21965;-80
2022/04/13 09:31:33;;;;;;;9.80;5.70;;;;;;;20.74;20.90;101074.30;110127;1258;21982;-81
2022/04/13 09:34:17;;;;;;;9.40;6.10;;;;;;;20.76;20.90;101071.02;109665;1264;22002;-79
2022/04/13 09:36:51;;;;;;;8.70;7.80;;;;;;;20.92;20.91;101066.19;109621;1264;22968;-81
2022/04/13 09:39:23;;;;;;;7.10;6.20;;;;;;;20.95;20.55;101073.31;109966;1261;21956;-80
2022/04/13 09:41:53;;;;;;;6.30;5.40;;;;;;;20.75;20.05;101068.21;109978;1259;21997;-80
2022/04/13 09:44:29;;;;;;;10.80;6.70;;;;;;;20.53;20.86;101071.00;109935;1261;21968;-80
2022/04/13 09:47:08;;;;;;;9.30;6.20;;;;;;;20.54;20.80;101068.10;109985;1261;23005;-80
2022/04/13 09:49:59;;;;;;;6.10;5.50;;;;;;;20.48;20.68;101063.05;109985;1255;22981;-80
2022/04/13 09:52:44;;;;;;;9.10;6.80;;;;;;;20.63;21.05;101057.93;110371;1255;22611;-81
2022/04/13 09:55:28;;;;;;;10.50;5.90;;;;;;;20.76;20.07;101054.33;109748;1262;22941;-79
2022/04/13 09:58:12;;;;;;;6.50;5.80;;;;;;;20.67;19.90;101045.60;109731;1256;22372;-79
2022/04/13 10:00:49;;;;;;;8.60;5.80;;;;;;;20.52;20.06;101034.71;110372;1256;21974;-80
2022/04/13 10:03:25;;;;;;;8.80;6.00;;;;;;;20.61;20.27;101029.03;110407;1255;22264;-80
2022/04/13 10:06:08;;;;;;;6.60;5.50;;;;;;;20.79;20.10;101025.98;110502;1255;24306;-80
2022/04/13 10:09:00;;;;;;;6.20;5.20;;;;;;;21.02;20.06;101034.02;110393;1254;22019;-80
2022/04/13 10:11:32;;;;;;;7.50;5.50;;;;;;;20.90;19.55;101037.95;110735;1256;23037;-79
2022/04/13 10:14:05;;;;;;;6.20;5.30;;;;;;;21.03;20.16;101043.95;110710;1249;21962;-80
2022/04/13 10:16:57;;;;;;;8.60;7.20;;;;;;;21.20;19.83;101042.31;110956;1249;21963;-81
2022/04/13 10:19:51;;;;;;;8.80;6.90;;;;;;;21.19;19.90;101037.94;110495;1258;22850;-80
2022/04/13 10:22:25;;;;;;;7.50;5.40;;;;;;;21.22;19.82;101043.30;110027;1258;22008;-77
2022/04/13 10:25:18;;;;;;;10.10;5.70;;;;;;;21.17;19.61;101035.28;109576;1261;21988;-78
2022/04/13 10:27:58;;;;;;;7.40;5.30;;;;;;;21.10;19.78;101028.36;109590;1261;24404;-78
2022/04/13 10:30:37;;;;;;;9.70;8.70;;;;;;;21.16;19.93;101028.97;109651;1261;22874;-79
2022/04/13 10:33:19;;;;;;;5.50;4.60;;;;;;;21.27;19.29;101028.61;109625;1260;21970;-78
2022/04/13 10:35:56;;;;;;;8.50;7.40;;;;;;;21.01;18.95;101026.89;109627;1263;22745;-78
2022/04/13 10:38:31;;;;;;;6.40;5.40;;;;;;;20.85;19.60;101024.29;109937;1255;22000;-79
2022/04/13 10:41:01;;;;;;;11.00;7.10;;;;;;;20.61;19.11;101026.06;110301;1255;23704;-79
2022/04/13 10:43:39;;;;;;;6.10;5.40;;;;;;;20.47;19.90;101028.48;110143;1255;22005;-78
2022/04/13 10:46:14;;;;;;;10.30;6.00;;;;;;;20.53;19.99;101031.25;110173;1255;23043;-79
2022/04/13 10:48:49;;;;;;;19.60;11.50;;;;;;;20.45;19.73;101027.09;110054;1258;21965;-79
2022/04/13 10:51:49;;;;;;;;;;;;;;;;;;;;;
2022/04/13 10:55:38;;;;;;;13.10;9.30;;;;;;;20.18;19.22;101017.55;110450;1259;23741;-80
2022/04/13 10:59:16;;;;;;;11.90;6.30;;;;;;;19.91;19.64;101017.94;109881;1259;22000;-81
2022/04/13 11:02:39;;;;;;;6.70;4.80;;;;;;;19.70;20.45;101014.23;110468;1254;22049;-80
2022/04/13 11:05:57;;;;;;;8.60;6.00;;;;;;;19.42;20.71;101012.02;110825;1254;23557;-80
2022/04/13 11:09:38;;;;;;;8.60;5.70;;;;;;;19.13;21.07;101007.36;110810;1254;21974;-81
2022/04/13 11:13:08;;;;;;;10.10;4.80;;;;;;;18.87;21.32;100999.14;110161;1255;23135;-79
2022/04/13 11:15:55;;;;;;;11.10;8.00;;;;;;;18.69;21.51;101003.49;110681;1257;21965;-79
2022/04/13 11:18:31;;;;;;;7.90;5.20;;;;;;;18.59;21.49;101004.06;110613;1255;23831;-79
2022/04/13 11:21:12;;;;;;;5.60;4.60;;;;;;;18.49;21.29;100997.02;110139;1255;21999;-77
2022/04/13 11:24:41;;;;;;;14.00;8.60;;;;;;;18.36;21.11;100998.05;110217;1259;21970;-80
2022/04/13 11:27:11;;;;;;;16.50;10.20;;;;;;;18.09;21.02;100989.85;109224;1267;22968;-80
2022/04/13 11:30:13;;;;;;;;;;;;;;;18.03;21.03;100987.61;109284;1267;21964;-79
2022/04/13 11:32:52;;;;;;;18.90;10.90;;;;;;;18.04;21.08;100986.01;109252;1267;22223;-80
2022/04/13 11:35:56;;;;;;;17.50;11.00;;;;;;;18.07;21.04;100990.41;109209;1267;22038;-79
2022/04/13 11:39:24;;;;;;;;;;;;;;;;;;;;;
2022/04/13 11:43:34;;;;;;;;;;;;;;;;;;;;;
2022/04/13 11:46:40;;;;;;;20.60;14.10;;;;;;;18.14;21.13;100983.81;110573;1256;22969;-80
2022/04/13 11:49:14;;;;;;;11.50;6.40;;;;;;;18.13;20.78;100982.20;110413;1256;21965;-81